createdAt,value
2018-02-17T00:01:21.662Z,25.53
2018-02-17T00:03:47.557Z,32.37
2018-02-17T00:06:13.522Z,32.93
2018-02-17T00:08:39.428Z,28.97
2018-02-17T00:11:05.294Z,32.87
2018-02-17T00:13:31.162Z,31.27
2018-02-17T00:15:57.093Z,30.87
2018-02-17T00:18:23.085Z,31.43
2018-02-17T00:20:49.002Z,35.83
2018-02-17T00:23:14.905Z,33.00
2018-02-17T00:25:40.763Z,31.73
2018-02-17T00:28:06.636Z,35.33
2018-02-17T00:30:32.655Z,30.87
2018-02-17T00:32:58.504Z,42.20
2018-02-17T00:35:24.354Z,32.90
2018-02-17T00:37:50.264Z,24.90
2018-02-17T00:40:16.138Z,32.07
2018-02-17T00:42:42.089Z,31.87
2018-02-17T00:45:08.322Z,32.17
2018-02-17T00:47:34.218Z,29.53
2018-02-17T00:50:00.069Z,30.70
2018-02-17T00:52:25.974Z,33.33
2018-02-17T00:54:51.917Z,37.57
2018-02-17T00:57:17.764Z,31.93
2018-02-17T00:59:43.660Z,30.90
2018-02-17T01:02:09.516Z,31.97
2018-02-17T01:04:35.407Z,31.53
2018-02-17T01:07:01.406Z,38.23
2018-02-17T01:09:27.252Z,42.97
2018-02-17T01:11:53.092Z,33.43
2018-02-17T01:14:19.057Z,31.43
2018-02-17T01:16:44.944Z,35.90
2018-02-17T01:19:10.910Z,32.10
2018-02-17T01:21:36.796Z,37.83
2018-02-17T01:24:02.662Z,41.20
2018-02-17T01:26:28.509Z,42.33
2018-02-17T01:28:54.423Z,40.10
2018-02-17T01:31:20.375Z,46.63
2018-02-17T01:33:46.227Z,34.00
2018-02-17T01:36:12.132Z,39.87
2018-02-17T01:38:37.991Z,36.57
2018-02-17T01:41:03.860Z,37.57
2018-02-17T01:43:29.896Z,42.90
2018-02-17T01:45:55.805Z,43.83
2018-02-17T01:48:21.640Z,41.37
2018-02-17T01:50:47.527Z,51.00
2018-02-17T01:53:13.414Z,45.40
2018-02-17T01:55:39.367Z,41.67
2018-02-17T01:58:05.272Z,43.77
2018-02-17T02:00:31.201Z,34.80
2018-02-17T02:02:57.051Z,39.63
2018-02-17T02:05:23.258Z,30.33
2018-02-17T02:07:49.204Z,39.10
2018-02-17T02:10:15.045Z,39.80
2018-02-17T02:12:40.936Z,33.83
2018-02-17T02:15:06.802Z,37.87
2018-02-17T02:17:32.708Z,35.77
2018-02-17T02:19:58.704Z,32.63
2018-02-17T02:22:24.569Z,35.27
2018-02-17T02:24:50.422Z,43.67
2018-02-17T02:27:16.476Z,32.23
2018-02-17T02:29:42.328Z,39.23
2018-02-17T02:32:08.257Z,34.13
2018-02-17T02:34:34.152Z,31.17
2018-02-17T02:37:00.314Z,36.67
2018-02-17T02:39:26.228Z,37.40
2018-02-17T02:41:52.116Z,29.43
2018-02-17T02:44:18.054Z,32.40
2018-02-17T02:46:43.896Z,37.80
2018-02-17T02:49:09.785Z,38.70
2018-02-17T02:51:35.641Z,34.60
2018-02-17T02:54:01.542Z,32.47
2018-02-17T02:56:27.529Z,35.97
2018-02-17T02:58:53.385Z,36.93
2018-02-17T03:01:19.340Z,31.67
2018-02-17T03:03:45.238Z,33.07
2018-02-17T03:06:11.149Z,37.13
2018-02-17T03:08:37.165Z,35.73
2018-02-17T03:11:03.052Z,35.17
2018-02-17T03:13:28.906Z,36.30
2018-02-17T03:15:54.762Z,32.50
2018-02-17T03:18:20.713Z,32.47
2018-02-17T03:20:46.688Z,35.07
2018-02-17T03:23:12.545Z,35.83
2018-02-17T03:25:38.444Z,37.30
2018-02-17T03:28:04.309Z,34.30
2018-02-17T03:30:30.216Z,38.53
2018-02-17T03:32:56.516Z,32.53
2018-02-17T03:35:22.374Z,34.70
2018-02-17T03:37:48.224Z,34.63
2018-02-17T03:40:14.133Z,38.87
2018-02-17T03:42:40.034Z,36.47
2018-02-17T03:45:05.985Z,34.17
2018-02-17T03:47:31.886Z,34.40
2018-02-17T03:49:57.769Z,39.83
2018-02-17T03:52:23.615Z,38.87
2018-02-17T03:54:49.559Z,35.07
2018-02-17T03:57:15.516Z,40.70
2018-02-17T03:59:41.384Z,38.57
2018-02-17T04:02:07.378Z,38.17
2018-02-17T04:04:33.224Z,36.10
2018-02-17T04:06:59.142Z,34.13
2018-02-17T04:09:25.520Z,34.73
2018-02-17T04:11:51.456Z,30.00
2018-02-17T04:14:17.301Z,35.07
2018-02-17T04:16:43.274Z,39.10
2018-02-17T04:19:09.218Z,35.37
2018-02-17T04:21:35.156Z,35.57
2018-02-17T04:24:01.061Z,36.43
2018-02-17T04:26:26.915Z,33.27
2018-02-17T04:28:52.798Z,36.13
2018-02-17T04:31:18.755Z,35.53
2018-02-17T04:33:44.669Z,34.63
2018-02-17T04:36:10.504Z,34.23
2018-02-17T04:38:36.431Z,34.50
2018-02-17T04:41:06.354Z,39.47
2018-02-17T04:43:33.190Z,35.03
2018-02-17T04:46:15.397Z,32.23
2018-02-17T04:48:43.343Z,33.33
2018-02-17T04:54:19.105Z,35.63
2018-02-17T04:56:50.116Z,36.83
2018-02-17T04:59:17.935Z,32.97
2018-02-17T05:01:45.577Z,39.03
2018-02-17T05:04:12.333Z,32.23
2018-02-17T05:06:42.192Z,42.87
2018-02-17T05:09:08.145Z,32.90
2018-02-17T05:11:34.049Z,33.27
2018-02-17T05:14:00.879Z,36.43
2018-02-17T05:16:37.203Z,31.77
2018-02-17T05:22:07.796Z,34.77
2018-02-17T05:24:34.493Z,39.07
2018-02-17T05:27:01.564Z,40.63
2018-02-17T05:29:29.329Z,36.37
2018-02-17T05:31:55.191Z,33.40
2018-02-17T05:34:27.274Z,37.10
2018-02-17T05:36:55.022Z,36.67
2018-02-17T05:39:26.953Z,34.03
2018-02-17T05:42:12.965Z,36.77
2018-02-17T05:44:38.921Z,41.70
2018-02-17T05:47:05.795Z,39.30
2018-02-17T05:52:37.994Z,35.27
2018-02-17T05:55:04.141Z,36.63
2018-02-17T05:57:29.997Z,42.63
2018-02-17T05:59:55.902Z,37.30
2018-02-17T06:02:22.263Z,35.10
2018-02-17T06:04:48.127Z,34.97
2018-02-17T06:07:14.060Z,40.47
2018-02-17T06:09:39.956Z,34.53
2018-02-17T06:12:05.906Z,35.10
2018-02-17T06:14:31.764Z,37.90
2018-02-17T06:16:57.672Z,38.10
2018-02-17T06:19:23.683Z,39.13
2018-02-17T06:21:49.528Z,35.03
2018-02-17T06:24:15.468Z,35.60
2018-02-17T06:26:41.331Z,33.97
2018-02-17T06:29:07.178Z,36.43
2018-02-17T06:31:33.165Z,41.53
2018-02-17T06:33:59.384Z,33.73
2018-02-17T06:36:25.312Z,37.13
2018-02-17T06:38:51.196Z,35.17
2018-02-17T06:41:17.144Z,36.10
2018-02-17T06:43:43.097Z,34.53
2018-02-17T06:46:08.984Z,36.47
2018-02-17T06:48:34.890Z,37.00
2018-02-17T06:51:00.768Z,37.77
2018-02-17T06:53:26.647Z,35.93
2018-02-17T06:55:52.564Z,33.13
2018-02-17T06:58:18.406Z,38.17
2018-02-17T07:00:44.353Z,35.20
2018-02-17T07:03:10.201Z,38.20
2018-02-17T07:05:36.053Z,36.13
2018-02-17T07:08:02.047Z,38.10
2018-02-17T07:10:27.902Z,30.87
2018-02-17T07:12:53.793Z,35.13
2018-02-17T07:15:20.046Z,36.17
2018-02-17T07:17:45.891Z,36.40
2018-02-17T07:20:11.830Z,35.70
2018-02-17T07:22:37.712Z,36.77
2018-02-17T07:25:03.725Z,30.60
2018-02-17T07:27:29.587Z,34.43
2018-02-17T07:29:55.488Z,33.10
2018-02-17T07:32:21.415Z,32.80
2018-02-17T07:34:47.258Z,32.40
2018-02-17T07:37:13.205Z,32.00
2018-02-17T07:39:39.952Z,35.23
2018-02-17T07:42:05.797Z,37.13
2018-02-17T07:44:31.776Z,31.93
2018-02-17T07:47:04.560Z,33.47
2018-02-17T07:49:30.471Z,38.60
2018-02-17T07:51:56.715Z,30.83
2018-02-17T07:54:22.584Z,32.33
2018-02-17T07:56:48.539Z,34.67
2018-02-17T07:59:14.448Z,36.73
2018-02-17T08:01:40.357Z,33.47
2018-02-17T08:04:06.292Z,33.03
2018-02-17T08:06:32.205Z,34.60
2018-02-17T08:08:58.141Z,37.30
2018-02-17T08:11:23.980Z,35.07
2018-02-17T08:13:49.920Z,34.43
2018-02-17T08:16:15.761Z,35.93
2018-02-17T08:18:41.612Z,34.17
2018-02-17T08:21:07.584Z,34.23
2018-02-17T08:23:33.536Z,37.30
2018-02-17T08:25:59.757Z,33.93
2018-02-17T08:28:25.662Z,37.53
2018-02-17T08:30:51.520Z,37.53
2018-02-17T08:33:17.458Z,33.10
2018-02-17T08:35:43.369Z,33.30
2018-02-17T08:38:09.269Z,35.60
2018-02-17T08:40:35.161Z,31.93
2018-02-17T08:43:01.068Z,34.30
2018-02-17T08:45:27.013Z,37.70
2018-02-17T08:47:52.906Z,36.17
2018-02-17T08:50:18.848Z,32.77
2018-02-17T08:52:44.684Z,38.40
2018-02-17T08:55:10.536Z,32.77
2018-02-17T08:57:36.508Z,37.20
2018-02-17T09:00:02.380Z,37.20
2018-02-17T09:02:28.272Z,40.17
2018-02-17T09:04:54.179Z,32.93
2018-02-17T09:07:20.008Z,35.90
2018-02-17T09:09:45.916Z,27.10
2018-02-17T09:12:11.861Z,29.50
2018-02-17T09:14:37.752Z,31.40
2018-02-17T09:17:03.613Z,32.43
2018-02-17T09:19:29.577Z,33.70
2018-02-17T09:21:55.471Z,31.90
2018-02-17T09:24:21.337Z,32.80
2018-02-17T09:26:47.280Z,33.57
2018-02-17T09:29:13.118Z,34.57
2018-02-17T09:31:39.020Z,29.37
2018-02-17T09:34:05.794Z,30.70
2018-02-17T09:36:31.639Z,31.73
2018-02-17T09:38:57.552Z,36.10
2018-02-17T09:41:23.462Z,32.53
2018-02-17T09:43:49.355Z,34.87
2018-02-17T09:46:15.269Z,30.23
2018-02-17T09:48:41.152Z,31.20
2018-02-17T09:51:07.050Z,38.63
2018-02-17T09:53:32.908Z,31.47
2018-02-17T09:55:58.861Z,35.53
2018-02-17T09:58:24.773Z,30.67
2018-02-17T10:00:50.634Z,32.27
2018-02-17T10:03:16.588Z,30.67
2018-02-17T10:05:42.432Z,30.33
2018-02-17T10:08:08.324Z,28.80
2018-02-17T10:10:34.264Z,31.73
2018-02-17T10:13:00.096Z,34.73
2018-02-17T10:15:25.992Z,32.83
2018-02-17T10:17:51.971Z,29.53
2018-02-17T10:20:17.860Z,31.50
2018-02-17T10:22:43.809Z,32.00
2018-02-17T10:25:09.702Z,30.13
2018-02-17T10:27:35.623Z,33.73
2018-02-17T10:30:01.493Z,35.30
2018-02-17T10:32:27.472Z,31.30
2018-02-17T10:34:53.381Z,28.17
2018-02-17T10:37:19.217Z,36.17
2018-02-17T10:39:45.158Z,36.40
2018-02-17T10:42:10.987Z,31.07
2018-02-17T10:44:36.880Z,32.57
2018-02-17T10:47:09.709Z,29.17
2018-02-17T10:49:35.561Z,31.53
2018-02-17T10:52:01.464Z,27.80
2018-02-17T10:54:27.355Z,30.53
2018-02-17T10:56:53.263Z,29.77
2018-02-17T10:59:19.165Z,32.63
2018-02-17T11:01:45.061Z,30.13
2018-02-17T11:04:10.986Z,31.30
2018-02-17T11:06:36.828Z,30.63
2018-02-17T11:09:02.800Z,33.30
2018-02-17T11:11:28.800Z,36.30
2018-02-17T11:13:54.654Z,37.03
2018-02-17T11:16:20.642Z,31.77
2018-02-17T11:18:46.492Z,26.70
2018-02-17T11:21:12.379Z,31.13
2018-02-17T11:23:38.344Z,31.47
2018-02-17T11:26:04.194Z,26.17
2018-02-17T11:28:30.110Z,30.33
2018-02-17T11:30:56.001Z,26.93
2018-02-17T11:33:21.902Z,25.33
2018-02-17T11:35:47.839Z,31.23
2018-02-17T11:38:13.712Z,28.03
2018-02-17T11:40:39.621Z,26.93
2018-02-17T11:43:05.455Z,29.00
2018-02-17T11:45:31.514Z,26.80
2018-02-17T11:47:57.437Z,29.97
2018-02-17T11:50:23.276Z,28.93
2018-02-17T11:52:49.228Z,30.17
2018-02-17T11:55:15.084Z,37.43
2018-02-17T11:57:41.022Z,28.43
2018-02-17T12:00:07.076Z,28.40
2018-02-17T12:02:32.965Z,29.13
2018-02-17T12:04:58.878Z,30.07
2018-02-17T12:07:24.778Z,28.80
2018-02-17T12:09:50.784Z,26.30
2018-02-17T12:12:16.696Z,29.97
2018-02-17T12:14:42.582Z,27.13
2018-02-17T12:17:08.486Z,32.20
2018-02-17T12:19:34.331Z,27.10
2018-02-17T12:22:00.270Z,24.03
2018-02-17T12:24:26.184Z,30.30
2018-02-17T12:26:52.025Z,26.27
2018-02-17T12:29:17.988Z,30.73
2018-02-17T12:31:43.820Z,26.30
2018-02-17T12:34:09.717Z,29.20
2018-02-17T12:36:35.678Z,30.37
2018-02-17T12:39:01.557Z,30.10
2018-02-17T12:41:27.460Z,31.93
2018-02-17T12:43:53.348Z,24.97
2018-02-17T12:46:19.236Z,28.63
2018-02-17T12:48:45.126Z,27.67
2018-02-17T12:51:11.008Z,27.73
2018-02-17T12:53:36.909Z,25.57
2018-02-17T12:56:02.762Z,28.17
2018-02-17T12:58:28.708Z,27.67
2018-02-17T13:00:54.617Z,27.27
2018-02-17T13:03:20.460Z,25.60
2018-02-17T13:05:46.406Z,30.40
2018-02-17T13:08:12.262Z,28.93
2018-02-17T13:10:38.159Z,27.20
2018-02-17T13:13:04.141Z,28.20
2018-02-17T13:15:30.007Z,26.17
2018-02-17T13:17:55.960Z,25.90
2018-02-17T13:20:21.838Z,26.13
2018-02-17T13:22:47.737Z,30.03
2018-02-17T13:25:13.670Z,28.43
2018-02-17T13:27:39.566Z,28.80
2018-02-17T13:30:05.551Z,25.13
2018-02-17T13:32:31.388Z,28.67
2018-02-17T13:34:57.316Z,35.37
2018-02-17T13:37:23.233Z,30.83
2018-02-17T13:39:49.076Z,30.77
2018-02-17T13:42:15.020Z,31.37
2018-02-17T13:44:40.865Z,31.87
2018-02-17T13:47:06.764Z,30.97
2018-02-17T13:49:32.729Z,33.40
2018-02-17T13:51:58.570Z,31.07
2018-02-17T13:54:24.474Z,28.23
2018-02-17T13:56:50.378Z,36.73
2018-02-17T13:59:16.297Z,40.33
2018-02-17T14:01:42.270Z,41.30
2018-02-17T14:04:08.167Z,36.43
2018-02-17T14:06:34.074Z,35.77
2018-02-17T14:08:59.927Z,35.10
2018-02-17T14:11:25.873Z,34.63
2018-02-17T14:13:51.855Z,36.07
2018-02-17T14:16:17.685Z,32.50
2018-02-17T14:18:43.630Z,31.67
2018-02-17T14:21:09.467Z,39.40
2018-02-17T14:23:35.363Z,36.20
2018-02-17T14:26:01.317Z,37.60
2018-02-17T14:28:27.156Z,34.83
2018-02-17T14:30:53.104Z,34.20
2018-02-17T14:33:18.984Z,36.90
2018-02-17T14:35:44.890Z,31.97
2018-02-17T14:38:10.814Z,26.60
2018-02-17T14:40:36.707Z,35.00
2018-02-17T14:43:02.630Z,32.10
2018-02-17T14:45:35.488Z,30.40
2018-02-17T14:48:01.420Z,34.10
2018-02-17T14:50:27.341Z,33.03
2018-02-17T14:52:53.204Z,35.13
2018-02-17T14:55:19.185Z,36.03
2018-02-17T14:57:45.058Z,33.43
2018-02-17T15:00:10.962Z,28.17
2018-02-17T15:02:36.916Z,32.53
2018-02-17T15:05:02.770Z,33.03
2018-02-17T15:07:28.682Z,44.60
2018-02-17T15:09:54.620Z,35.57
2018-02-17T15:12:20.488Z,39.87
2018-02-17T15:14:46.396Z,31.20
2018-02-17T15:17:12.288Z,34.03
2018-02-17T15:19:38.250Z,32.57
2018-02-17T15:22:04.104Z,34.37
2018-02-17T15:24:30.052Z,34.63
2018-02-17T15:26:55.952Z,32.30
2018-02-17T15:29:21.808Z,28.73
2018-02-17T15:31:49.664Z,27.80
2018-02-17T15:34:15.609Z,26.53
2018-02-17T15:36:41.514Z,30.93
2018-02-17T15:39:07.471Z,28.93
2018-02-17T15:41:33.325Z,29.77
2018-02-17T15:43:59.279Z,32.33
2018-02-17T15:46:25.162Z,24.40
2018-02-17T15:48:51.052Z,29.40
2018-02-17T15:51:16.965Z,35.63
2018-02-17T15:53:42.857Z,37.33
2018-02-17T15:56:08.760Z,37.37
2018-02-17T15:58:34.618Z,30.67
2018-02-17T16:01:00.569Z,31.10
2018-02-17T16:03:26.587Z,35.37
2018-02-17T16:05:52.432Z,31.50
2018-02-17T16:08:18.375Z,33.77
2018-02-17T16:10:44.253Z,30.47
2018-02-17T16:13:10.150Z,30.20
2018-02-17T16:15:36.100Z,29.23
2018-02-17T16:18:02.022Z,29.63
2018-02-17T16:20:27.953Z,30.40
2018-02-17T16:22:53.866Z,30.03
2018-02-17T16:25:19.755Z,25.83
2018-02-17T16:27:45.666Z,31.63
2018-02-17T16:30:11.570Z,27.40
2018-02-17T16:32:37.536Z,22.77
2018-02-17T16:35:03.394Z,25.90
2018-02-17T16:37:29.336Z,29.03
2018-02-17T16:39:55.241Z,29.67
2018-02-17T16:42:21.080Z,29.83
2018-02-17T16:44:47.016Z,29.80
2018-02-17T16:47:12.848Z,25.17
2018-02-17T16:49:38.733Z,26.93
2018-02-17T16:52:04.681Z,27.57
2018-02-17T16:54:30.537Z,26.60
2018-02-17T16:56:56.437Z,27.90
2018-02-17T16:59:22.328Z,25.17
2018-02-17T17:01:48.212Z,30.00
2018-02-17T17:04:14.117Z,31.30
2018-02-17T17:06:40.016Z,26.10
2018-02-17T17:09:05.920Z,21.97
2018-02-17T17:11:31.789Z,25.40
2018-02-17T17:13:57.745Z,30.20
2018-02-17T17:16:23.756Z,26.30
2018-02-17T17:18:49.606Z,23.30
2018-02-17T17:21:15.858Z,23.03
2018-02-17T17:23:41.704Z,23.00
2018-02-17T17:26:07.599Z,23.17
2018-02-17T17:28:33.552Z,27.70
2018-02-17T17:30:59.401Z,31.70
2018-02-17T17:33:25.304Z,26.40
2018-02-17T17:35:51.213Z,28.77
2018-02-17T17:38:17.106Z,24.43
2018-02-17T17:40:43.053Z,24.33
2018-02-17T17:43:08.944Z,21.57
2018-02-17T17:45:34.849Z,19.70
2018-02-17T17:48:00.725Z,24.20
2018-02-17T17:50:26.673Z,23.47
2018-02-17T17:52:52.587Z,26.83
2018-02-17T17:55:18.442Z,28.33
2018-02-17T17:57:44.760Z,22.67
2018-02-17T18:00:10.650Z,27.20
2018-02-17T18:02:36.555Z,23.97
2018-02-17T18:08:00.246Z,25.10
2018-02-17T18:10:26.102Z,29.97
2018-02-17T18:12:52.082Z,22.60
2018-02-17T18:15:17.986Z,27.57
2018-02-17T18:17:43.844Z,25.70
2018-02-17T18:20:09.886Z,25.67
2018-02-17T18:22:35.745Z,23.63
2018-02-17T18:25:01.649Z,34.43
2018-02-17T18:27:27.500Z,32.43
2018-02-17T18:29:53.406Z,26.70
2018-02-17T18:32:19.395Z,28.70
2018-02-17T18:34:45.248Z,30.90
2018-02-17T18:37:11.191Z,26.80
2018-02-17T18:39:37.041Z,24.67
2018-02-17T18:42:02.902Z,25.17
2018-02-17T18:44:28.957Z,25.37
2018-02-17T18:46:54.818Z,23.13
2018-02-17T18:49:20.725Z,26.37
2018-02-17T18:51:46.624Z,26.53
2018-02-17T18:54:12.471Z,22.33
2018-02-17T18:56:38.457Z,24.77
2018-02-17T18:59:04.348Z,21.63
2018-02-17T19:01:30.287Z,28.23
2018-02-17T19:03:56.155Z,21.57
2018-02-17T19:06:22.118Z,18.47
2018-02-17T19:08:48.089Z,19.43
2018-02-17T19:11:14.230Z,23.43
2018-02-17T19:13:40.770Z,24.20
2018-02-17T19:16:07.029Z,24.23
2018-02-17T19:18:33.393Z,21.77
2018-02-17T19:21:00.129Z,25.90
2018-02-17T19:23:26.469Z,25.57
2018-02-17T19:25:52.746Z,29.80
2018-02-17T19:28:19.048Z,21.93
2018-02-17T19:30:45.305Z,18.97
2018-02-17T19:33:11.340Z,21.43
2018-02-17T19:35:37.364Z,20.40
2018-02-17T19:38:03.675Z,15.77
2018-02-17T19:40:29.862Z,24.00
2018-02-17T19:42:56.088Z,25.33
2018-02-17T19:45:22.517Z,23.13
2018-02-17T19:47:48.793Z,19.50
2018-02-17T19:50:14.986Z,20.67
2018-02-17T19:52:40.864Z,23.97
2018-02-17T19:55:06.758Z,20.67
2018-02-17T19:57:32.812Z,24.27
2018-02-17T19:59:58.659Z,22.53
2018-02-17T20:02:25.208Z,23.63
2018-02-17T20:04:51.150Z,20.30
2018-02-17T20:07:17.230Z,21.83
2018-02-17T20:09:43.209Z,23.87
2018-02-17T20:12:09.346Z,19.20
2018-02-17T20:14:35.273Z,16.70
2018-02-17T20:17:01.240Z,21.53
2018-02-17T20:19:27.123Z,20.33
2018-02-17T20:21:53.103Z,16.70
2018-02-17T20:24:19.033Z,18.43
2018-02-17T20:26:45.013Z,21.07
2018-02-17T20:29:10.868Z,22.10
2018-02-17T20:31:36.699Z,17.90
2018-02-17T20:34:03.030Z,21.40
2018-02-17T20:36:28.894Z,19.53
2018-02-17T20:38:54.802Z,20.77
2018-02-17T20:41:20.790Z,22.27
2018-02-17T20:43:46.645Z,22.53
2018-02-17T20:46:12.626Z,21.03
2018-02-17T20:48:38.529Z,19.27
2018-02-17T20:51:04.440Z,20.57
2018-02-17T20:53:30.284Z,24.73
2018-02-17T20:55:56.193Z,19.30
2018-02-17T20:58:22.156Z,24.60
2018-02-17T21:00:47.996Z,19.40
2018-02-17T21:03:13.953Z,20.43
2018-02-17T21:05:39.800Z,16.67
2018-02-17T21:08:05.653Z,20.13
2018-02-17T21:10:31.672Z,22.63
2018-02-17T21:12:57.536Z,19.37
2018-02-17T21:15:23.436Z,17.40
2018-02-17T21:17:49.330Z,19.93
2018-02-17T21:20:15.201Z,22.67
2018-02-17T21:22:41.186Z,22.20
2018-02-17T21:25:07.072Z,21.60
2018-02-17T21:27:32.973Z,21.30
2018-02-17T21:29:58.821Z,20.37
2018-02-17T21:32:25.065Z,18.10
2018-02-17T21:34:51.045Z,20.30
2018-02-17T21:37:16.884Z,23.00
2018-02-17T21:39:42.820Z,19.13
2018-02-17T21:42:08.666Z,15.23
2018-02-17T21:44:34.512Z,19.57
2018-02-17T21:47:00.559Z,14.37
2018-02-17T21:49:26.400Z,15.83
2018-02-17T21:51:52.306Z,14.77
2018-02-17T21:54:18.209Z,14.60
2018-02-17T21:56:44.057Z,16.30
2018-02-17T21:59:10.132Z,9.47
2018-02-17T22:01:36.060Z,16.07
2018-02-17T22:04:01.967Z,13.80
2018-02-17T22:06:28.163Z,13.57
2018-02-17T22:08:54.137Z,14.27
2018-02-17T22:11:20.113Z,14.70
2018-02-17T22:13:45.960Z,16.33
2018-02-17T22:16:11.904Z,16.17
2018-02-17T22:18:37.768Z,12.93
2018-02-17T22:21:03.614Z,12.00
2018-02-17T22:23:29.636Z,13.70
2018-02-17T22:25:55.490Z,15.33
2018-02-17T22:28:21.393Z,12.53
2018-02-17T22:30:47.296Z,13.80
2018-02-17T22:33:13.162Z,12.40
2018-02-17T22:35:39.132Z,12.83
2018-02-17T22:38:05.020Z,12.33
2018-02-17T22:40:30.912Z,12.13
2018-02-17T22:42:56.778Z,12.80
2018-02-17T22:45:22.694Z,11.63
2018-02-17T22:47:48.703Z,11.33
2018-02-17T22:50:14.562Z,17.40
2018-02-17T22:52:40.550Z,13.77
2018-02-17T22:55:06.388Z,15.23
2018-02-17T22:57:32.234Z,12.93
2018-02-17T22:59:58.255Z,16.73
2018-02-17T23:02:24.113Z,15.20
2018-02-17T23:04:50.013Z,16.57
2018-02-17T23:07:16.246Z,15.07
2018-02-17T23:09:42.096Z,18.23
2018-02-17T23:12:08.078Z,15.40
2018-02-17T23:14:33.960Z,18.40
2018-02-17T23:16:59.876Z,18.60
2018-02-17T23:19:25.732Z,18.57
2018-02-17T23:21:51.641Z,20.23
2018-02-17T23:24:17.621Z,19.63
2018-02-17T23:26:43.456Z,22.70
2018-02-17T23:29:09.392Z,19.00
2018-02-17T23:31:35.323Z,22.33
2018-02-17T23:34:01.157Z,14.30
2018-02-17T23:36:27.169Z,19.33
2018-02-17T23:38:53.020Z,21.03
2018-02-17T23:41:18.913Z,18.73
2018-02-17T23:43:44.807Z,23.60
2018-02-17T23:46:10.652Z,13.87
2018-02-17T23:48:36.621Z,20.33
2018-02-17T23:51:02.516Z,14.50
2018-02-17T23:53:28.418Z,19.00
2018-02-17T23:55:54.269Z,20.33
2018-02-17T23:58:20.162Z,20.20
